createdAt,value
2022-08-26T00:02:23.234Z,19.19
2022-08-26T00:07:44.047Z,19.21
2022-08-26T00:13:05.468Z,19.20
2022-08-26T00:18:27.337Z,19.21
2022-08-26T00:23:51.462Z,19.19
2022-08-26T00:29:12.616Z,19.19
2022-08-26T00:34:34.034Z,19.18
2022-08-26T00:39:54.787Z,19.15
2022-08-26T00:45:16.167Z,19.13
2022-08-26T00:50:42.458Z,19.15
2022-08-26T00:56:08.294Z,19.18
2022-08-26T01:01:29.074Z,19.18
2022-08-26T01:06:53.671Z,19.17
2022-08-26T01:12:14.796Z,19.18
2022-08-26T01:17:37.603Z,19.17
2022-08-26T01:23:03.579Z,19.16
2022-08-26T01:28:28.187Z,19.14
2022-08-26T01:33:59.408Z,19.12
2022-08-26T01:39:21.049Z,19.11
2022-08-26T01:44:47.787Z,19.09
2022-08-26T01:50:20.098Z,19.07
2022-08-26T01:55:52.997Z,19.05
2022-08-26T02:01:14.343Z,19.01
2022-08-26T02:06:38.930Z,18.99
2022-08-26T02:12:01.744Z,18.97
2022-08-26T02:17:29.051Z,18.93
2022-08-26T02:22:49.907Z,18.91
2022-08-26T02:28:12.556Z,18.88
2022-08-26T02:33:33.199Z,18.87
2022-08-26T02:38:55.769Z,18.85
2022-08-26T02:44:16.297Z,18.83
2022-08-26T02:49:37.766Z,18.81
2022-08-26T02:54:58.622Z,18.81
2022-08-26T03:00:20.307Z,18.78
2022-08-26T03:05:42.474Z,18.75
2022-08-26T03:11:02.995Z,18.73
2022-08-26T03:16:23.688Z,18.72
2022-08-26T03:21:44.647Z,18.70
2022-08-26T03:27:07.811Z,18.69
2022-08-26T03:32:28.341Z,18.68
2022-08-26T03:37:49.179Z,18.66
2022-08-26T03:43:10.678Z,18.64
2022-08-26T03:48:31.435Z,18.63
2022-08-26T03:53:52.253Z,18.62
2022-08-26T03:59:12.584Z,18.61
2022-08-26T04:04:34.295Z,18.60
2022-08-26T04:09:58.329Z,18.60
2022-08-26T04:15:19.264Z,18.59
2022-08-26T04:20:39.729Z,18.59
2022-08-26T04:26:01.432Z,18.61
2022-08-26T04:31:22.763Z,18.61
2022-08-26T04:36:44.571Z,18.62
2022-08-26T04:42:55.084Z,18.62
2022-08-26T04:48:16.922Z,18.60
2022-08-26T04:53:39.181Z,18.62
2022-08-26T04:59:00.510Z,18.63
2022-08-26T05:04:22.011Z,18.66
2022-08-26T05:09:42.664Z,18.70
2022-08-26T05:15:03.327Z,18.73
2022-08-26T05:20:25.794Z,18.78
2022-08-26T05:25:48.017Z,18.86
2022-08-26T05:31:23.307Z,18.96
2022-08-26T05:36:44.327Z,19.07
2022-08-26T05:42:05.703Z,19.19
2022-08-26T05:47:26.440Z,19.32
2022-08-26T05:52:49.795Z,19.46
2022-08-26T05:58:11.748Z,19.60
2022-08-26T06:03:37.325Z,19.73
2022-08-26T06:09:00.481Z,19.90
2022-08-26T06:14:21.497Z,20.06
2022-08-26T06:19:42.103Z,20.21
2022-08-26T06:25:21.414Z,20.29
2022-08-26T06:30:43.183Z,20.44
2022-08-26T06:36:04.100Z,20.62
2022-08-26T06:41:25.697Z,20.75
2022-08-26T06:46:46.431Z,20.90
2022-08-26T06:52:11.700Z,21.06
2022-08-26T06:57:32.927Z,21.24
2022-08-26T07:02:55.813Z,21.38
2022-08-26T07:08:16.719Z,21.58
2022-08-26T07:13:38.583Z,21.85
2022-08-26T07:18:59.290Z,22.06
2022-08-26T07:24:21.609Z,22.36
2022-08-26T07:29:43.689Z,22.48
2022-08-26T07:35:06.091Z,22.62
2022-08-26T07:40:27.280Z,23.12
2022-08-26T07:45:48.093Z,23.21
2022-08-26T07:51:08.615Z,23.41
2022-08-26T07:56:29.406Z,23.66
2022-08-26T08:01:50.373Z,23.94
2022-08-26T08:07:11.971Z,24.02
2022-08-26T08:12:32.888Z,24.28
2022-08-26T08:17:58.880Z,24.70
2022-08-26T08:23:21.301Z,25.14
2022-08-26T08:28:41.808Z,25.45
2022-08-26T08:34:02.274Z,25.78
2022-08-26T08:39:23.184Z,26.15
2022-08-26T08:44:52.202Z,26.70
2022-08-26T08:50:34.105Z,26.77
2022-08-26T08:56:08.042Z,27.38
2022-08-26T09:01:42.143Z,27.44
2022-08-26T09:07:03.042Z,27.41
2022-08-26T09:12:29.434Z,28.04
2022-08-26T09:18:10.798Z,28.75
2022-08-26T09:23:35.907Z,29.64
2022-08-26T09:29:02.691Z,29.81
2022-08-26T09:34:26.401Z,31.40
2022-08-26T09:39:47.017Z,31.91
2022-08-26T09:45:10.517Z,33.04
2022-08-26T09:51:00.628Z,33.26
2022-08-26T09:56:21.971Z,33.13
2022-08-26T10:01:44.956Z,32.73
2022-08-26T10:07:09.709Z,32.68
2022-08-26T10:12:34.548Z,33.75
2022-08-26T10:18:17.741Z,33.33
2022-08-26T10:23:43.341Z,34.01
2022-08-26T10:29:15.598Z,32.74
2022-08-26T10:34:36.028Z,30.12
2022-08-26T10:40:08.222Z,30.80
2022-08-26T10:45:46.599Z,31.29
2022-08-26T10:51:08.756Z,29.88
2022-08-26T10:56:48.308Z,28.67
2022-08-26T11:02:15.314Z,27.87
2022-08-26T11:07:46.031Z,27.74
2022-08-26T11:13:07.358Z,27.63
2022-08-26T11:18:41.370Z,27.59
2022-08-26T11:24:01.703Z,28.00
2022-08-26T11:30:00.461Z,27.63
2022-08-26T11:35:21.415Z,26.95
2022-08-26T11:40:42.274Z,26.07
2022-08-26T11:46:09.223Z,26.26
2022-08-26T11:51:31.562Z,26.37
2022-08-26T11:56:53.254Z,27.53
2022-08-26T12:02:17.833Z,31.17
2022-08-26T12:07:38.920Z,31.30
2022-08-26T12:13:06.170Z,29.99
2022-08-26T12:18:33.873Z,30.56
2022-08-26T12:23:57.041Z,30.57
2022-08-26T12:29:27.340Z,30.38
2022-08-26T12:34:48.976Z,29.62
2022-08-26T12:40:31.260Z,29.54
2022-08-26T12:45:58.388Z,28.11
2022-08-26T12:51:24.398Z,26.32
2022-08-26T12:56:44.874Z,25.15
2022-08-26T13:02:05.591Z,24.11
2022-08-26T13:07:27.008Z,23.12
2022-08-26T13:12:47.590Z,22.35
2022-08-26T13:18:08.440Z,21.88
2022-08-26T13:23:28.967Z,22.35
2022-08-26T13:29:02.130Z,22.46
2022-08-26T13:34:24.008Z,22.48
2022-08-26T13:39:44.951Z,22.91
2022-08-26T13:45:06.451Z,23.76
2022-08-26T13:50:27.714Z,26.81
2022-08-26T13:55:49.140Z,26.55
2022-08-26T14:01:09.607Z,25.35
2022-08-26T14:06:30.524Z,24.40
2022-08-26T14:11:54.714Z,23.98
2022-08-26T14:17:21.036Z,23.60
2022-08-26T14:23:03.667Z,23.11
2022-08-26T14:33:51.489Z,22.51
2022-08-26T14:39:13.387Z,22.38
2022-08-26T14:44:34.405Z,22.29
2022-08-26T14:49:54.678Z,21.92
2022-08-26T14:55:15.232Z,21.27
2022-08-26T15:00:37.017Z,21.00
2022-08-26T15:05:57.851Z,20.96
2022-08-26T15:11:18.404Z,21.05
2022-08-26T15:16:39.394Z,21.01
2022-08-26T15:21:59.923Z,20.99
2022-08-26T15:27:20.644Z,20.92
2022-08-26T15:32:41.383Z,20.66
2022-08-26T15:38:01.927Z,20.47
2022-08-26T15:43:28.779Z,20.30
2022-08-26T15:48:50.015Z,20.13
2022-08-26T15:54:10.738Z,20.05
2022-08-26T15:59:31.657Z,19.95
2022-08-26T16:04:52.093Z,19.84
2022-08-26T16:10:15.287Z,19.81
2022-08-26T16:15:36.494Z,19.84
2022-08-26T16:21:12.434Z,19.78
2022-08-26T16:26:37.574Z,19.71
2022-08-26T16:31:58.273Z,19.74
2022-08-26T16:37:19.552Z,19.72
2022-08-26T16:42:40.235Z,19.66
2022-08-26T16:48:00.563Z,19.68
2022-08-26T16:53:21.408Z,19.62
2022-08-26T16:58:42.288Z,19.56
2022-08-26T17:04:03.020Z,19.49
2022-08-26T17:09:24.603Z,19.47
2022-08-26T17:14:45.836Z,19.50
2022-08-26T17:20:10.420Z,19.45
2022-08-26T17:25:31.927Z,19.42
2022-08-26T17:30:52.552Z,19.34
2022-08-26T17:36:13.808Z,19.26
2022-08-26T17:41:34.498Z,19.22
2022-08-26T17:46:55.308Z,19.19
2022-08-26T17:52:15.839Z,19.19
2022-08-26T17:57:40.811Z,19.16
2022-08-26T18:03:03.875Z,19.15
2022-08-26T18:08:24.303Z,19.03
2022-08-26T18:13:47.490Z,18.93
2022-08-26T18:19:08.683Z,18.88
2022-08-26T18:24:32.065Z,18.77
2022-08-26T18:29:52.624Z,18.70
2022-08-26T18:35:13.825Z,18.64
2022-08-26T18:40:37.488Z,18.59
2022-08-26T18:46:06.880Z,18.58
2022-08-26T18:51:30.004Z,18.51
2022-08-26T18:56:50.735Z,18.52
2022-08-26T19:02:11.832Z,18.50
2022-08-26T19:07:34.610Z,18.44
2022-08-26T19:13:00.669Z,18.41
2022-08-26T19:18:22.971Z,18.40
2022-08-26T19:23:43.495Z,18.39
2022-08-26T19:29:04.266Z,18.36
2022-08-26T19:34:25.554Z,18.37
2022-08-26T19:39:49.953Z,18.40
2022-08-26T19:45:24.853Z,18.39
2022-08-26T19:50:46.584Z,18.36
2022-08-26T19:56:07.131Z,18.32
2022-08-26T20:01:28.257Z,18.29
2022-08-26T20:06:48.534Z,18.26
2022-08-26T20:12:17.416Z,18.20
2022-08-26T20:17:38.897Z,18.13
2022-08-26T20:22:59.672Z,18.07
2022-08-26T20:28:20.097Z,18.02
2022-08-26T20:33:46.274Z,17.96
2022-08-26T20:39:07.872Z,17.95
2022-08-26T20:44:28.579Z,17.92
2022-08-26T20:49:49.035Z,17.90
2022-08-26T20:55:13.622Z,17.91
2022-08-26T21:00:34.815Z,17.87
2022-08-26T21:05:55.614Z,17.84
2022-08-26T21:11:18.009Z,17.82
2022-08-26T21:16:40.627Z,17.79
2022-08-26T21:22:01.017Z,17.78
2022-08-26T21:27:26.090Z,17.76
2022-08-26T21:32:46.977Z,17.70
2022-08-26T21:38:07.526Z,17.66
2022-08-26T21:43:35.138Z,17.61
2022-08-26T21:49:01.212Z,17.62
2022-08-26T21:54:21.960Z,17.60
2022-08-26T21:59:43.386Z,17.59
2022-08-26T22:05:05.019Z,17.52
2022-08-26T22:10:25.679Z,17.50
2022-08-26T22:15:47.794Z,17.50
2022-08-26T22:21:12.276Z,17.47
2022-08-26T22:26:33.680Z,17.47
2022-08-26T22:31:54.357Z,17.47
2022-08-26T22:37:14.910Z,17.48
2022-08-26T22:42:35.536Z,17.48
2022-08-26T22:47:56.931Z,17.49
2022-08-26T22:53:18.393Z,17.50
2022-08-26T22:58:39.329Z,17.49
2022-08-26T23:03:59.948Z,17.48
2022-08-26T23:09:20.393Z,17.49
2022-08-26T23:14:43.846Z,17.49
2022-08-26T23:20:08.781Z,17.49
2022-08-26T23:25:30.987Z,17.48
2022-08-26T23:30:53.582Z,17.49
2022-08-26T23:36:17.593Z,17.48
2022-08-26T23:41:39.055Z,17.47
2022-08-26T23:46:59.706Z,17.47
2022-08-26T23:52:38.852Z,17.44
2022-08-26T23:57:59.181Z,17.44
